createdAt,value
2022-12-26T00:02:20.145Z,6.50
2022-12-26T00:04:49.763Z,6.43
2022-12-26T00:07:18.680Z,6.10
2022-12-26T00:09:44.802Z,6.07
2022-12-26T00:12:10.888Z,5.70
2022-12-26T00:14:38.459Z,5.50
2022-12-26T00:17:04.516Z,6.13
2022-12-26T00:19:30.642Z,6.10
2022-12-26T00:21:56.848Z,5.37
2022-12-26T00:24:22.880Z,6.27
2022-12-26T00:26:48.914Z,5.87
2022-12-26T00:29:14.995Z,5.83
2022-12-26T00:31:41.161Z,5.17
2022-12-26T00:34:07.244Z,5.90
2022-12-26T00:36:33.936Z,5.50
2022-12-26T00:39:01.298Z,5.53
2022-12-26T00:41:27.909Z,5.83
2022-12-26T00:43:55.315Z,5.70
2022-12-26T00:46:21.402Z,5.47
2022-12-26T00:48:47.540Z,5.00
2022-12-26T00:51:14.118Z,5.00
2022-12-26T00:53:40.430Z,5.30
2022-12-26T00:56:07.471Z,4.70
2022-12-26T00:58:33.615Z,4.50
2022-12-26T01:01:06.790Z,4.57
2022-12-26T01:03:33.124Z,5.53
2022-12-26T01:06:01.898Z,4.60
2022-12-26T01:08:27.980Z,4.87
2022-12-26T01:10:54.021Z,4.60
2022-12-26T01:13:20.600Z,5.13
2022-12-26T01:15:49.015Z,5.20
2022-12-26T01:18:15.223Z,5.37
2022-12-26T01:20:41.302Z,5.30
2022-12-26T01:23:07.378Z,4.80
2022-12-26T01:25:33.480Z,4.70
2022-12-26T01:27:59.608Z,4.73
2022-12-26T01:30:25.653Z,4.43
2022-12-26T01:32:51.696Z,3.93
2022-12-26T01:35:17.838Z,5.20
2022-12-26T01:37:43.898Z,4.27
2022-12-26T01:40:11.435Z,4.30
2022-12-26T01:42:38.801Z,4.57
2022-12-26T01:45:23.772Z,4.30
2022-12-26T01:48:03.584Z,4.10
2022-12-26T01:50:29.678Z,3.87
2022-12-26T01:52:58.135Z,3.80
2022-12-26T01:55:24.877Z,3.97
2022-12-26T01:57:57.624Z,4.10
2022-12-26T02:00:23.721Z,4.10
2022-12-26T02:03:08.571Z,3.77
2022-12-26T02:05:35.018Z,4.17
2022-12-26T02:08:03.984Z,5.43
2022-12-26T02:10:36.112Z,3.40
2022-12-26T02:13:02.316Z,3.80
2022-12-26T02:15:28.356Z,3.47
2022-12-26T02:17:54.375Z,2.90
2022-12-26T02:20:26.087Z,3.20
2022-12-26T02:23:10.906Z,3.53
2022-12-26T02:26:12.503Z,3.17
2022-12-26T02:28:50.259Z,3.47
2022-12-26T02:31:46.320Z,3.20
2022-12-26T02:34:12.336Z,3.27
2022-12-26T02:36:56.626Z,3.63
2022-12-26T02:39:53.923Z,6.47
2022-12-26T02:42:35.865Z,4.67
2022-12-26T02:45:31.561Z,4.03
2022-12-26T02:48:06.175Z,4.23
2022-12-26T02:51:15.255Z,4.60
2022-12-26T02:54:09.324Z,3.43
2022-12-26T02:56:57.225Z,3.50
2022-12-26T02:59:55.716Z,4.10
2022-12-26T03:03:02.549Z,4.07
2022-12-26T03:05:52.604Z,3.20
2022-12-26T03:08:42.971Z,4.30
2022-12-26T03:11:28.234Z,4.20
2022-12-26T03:13:55.532Z,5.70
2022-12-26T03:16:41.399Z,3.60
2022-12-26T03:19:10.504Z,3.70
2022-12-26T03:21:41.089Z,4.23
2022-12-26T03:24:09.815Z,3.13
2022-12-26T03:26:41.934Z,3.47
2022-12-26T03:29:38.040Z,3.43
2022-12-26T03:32:10.100Z,3.60
2022-12-26T03:34:40.608Z,4.17
2022-12-26T03:37:47.350Z,3.50
2022-12-26T03:40:43.036Z,3.77
2022-12-26T03:43:42.792Z,3.93
2022-12-26T03:46:38.236Z,2.80
2022-12-26T03:49:27.176Z,3.50
2022-12-26T03:52:27.980Z,3.33
2022-12-26T03:55:41.495Z,3.50
2022-12-26T03:58:37.614Z,3.00
2022-12-26T04:01:26.811Z,4.27
2022-12-26T04:04:12.551Z,3.40
2022-12-26T04:07:11.434Z,3.00
2022-12-26T04:10:01.595Z,3.60
2022-12-26T04:12:47.870Z,3.50
2022-12-26T04:16:12.192Z,3.20
2022-12-26T04:19:08.384Z,3.40
2022-12-26T04:22:02.314Z,3.33
2022-12-26T04:24:59.331Z,3.10
2022-12-26T04:27:46.956Z,3.23
2022-12-26T04:30:32.000Z,3.17
2022-12-26T04:33:24.730Z,3.00
2022-12-26T04:36:13.829Z,3.17
2022-12-26T04:39:06.329Z,3.77
2022-12-26T04:41:52.052Z,3.20
2022-12-26T04:44:18.602Z,2.93
2022-12-26T04:46:46.655Z,3.17
2022-12-26T04:49:33.847Z,2.97
2022-12-26T04:52:02.049Z,4.83
2022-12-26T04:54:28.254Z,3.33
2022-12-26T04:56:54.830Z,3.13
2022-12-26T04:59:21.951Z,3.27
2022-12-26T05:02:06.962Z,2.10
2022-12-26T05:04:51.754Z,3.10
2022-12-26T05:07:39.839Z,3.10
2022-12-26T05:10:07.875Z,3.40
2022-12-26T05:12:34.534Z,3.47
2022-12-26T05:15:00.668Z,4.03
2022-12-26T05:17:45.101Z,4.63
2022-12-26T05:20:50.376Z,4.07
2022-12-26T05:23:40.808Z,3.20
2022-12-26T05:26:33.831Z,3.57
2022-12-26T05:29:00.129Z,4.33
2022-12-26T05:31:31.123Z,10.30
2022-12-26T05:34:07.210Z,3.23
2022-12-26T05:36:37.160Z,4.40
2022-12-26T05:39:04.200Z,5.37
2022-12-26T05:41:30.281Z,3.53
2022-12-26T05:43:56.469Z,4.80
2022-12-26T05:46:22.656Z,3.87
2022-12-26T05:48:48.841Z,4.40
2022-12-26T05:51:14.968Z,5.77
2022-12-26T05:53:41.117Z,5.70
2022-12-26T05:56:10.792Z,3.70
2022-12-26T05:58:37.160Z,4.47
2022-12-26T06:01:15.243Z,4.07
2022-12-26T06:03:45.049Z,3.60
2022-12-26T06:06:11.122Z,3.80
2022-12-26T06:08:37.560Z,3.93
2022-12-26T06:11:08.321Z,5.07
2022-12-26T06:13:34.638Z,3.60
2022-12-26T06:16:08.585Z,4.40
2022-12-26T06:18:34.809Z,4.60
2022-12-26T06:21:09.403Z,3.37
2022-12-26T06:23:35.725Z,3.63
2022-12-26T06:26:02.418Z,4.43
2022-12-26T06:28:28.701Z,3.40
2022-12-26T06:31:02.123Z,3.70
2022-12-26T06:33:28.216Z,5.33
2022-12-26T06:35:54.256Z,3.93
2022-12-26T06:38:20.292Z,6.73
2022-12-26T06:40:46.385Z,2.93
2022-12-26T06:43:12.438Z,6.30
2022-12-26T06:45:38.516Z,3.70
2022-12-26T06:48:04.749Z,3.30
2022-12-26T06:50:30.818Z,2.80
2022-12-26T06:52:56.862Z,2.97
2022-12-26T06:55:22.988Z,3.30
2022-12-26T06:57:51.412Z,3.37
2022-12-26T07:00:17.655Z,2.80
2022-12-26T07:02:43.860Z,3.10
2022-12-26T07:05:10.019Z,3.47
2022-12-26T07:07:36.117Z,3.80
2022-12-26T07:10:02.252Z,3.73
2022-12-26T07:12:28.324Z,4.20
2022-12-26T07:14:59.651Z,3.87
2022-12-26T07:17:27.532Z,2.93
2022-12-26T07:20:08.075Z,3.50
2022-12-26T07:22:34.158Z,5.00
2022-12-26T07:25:00.269Z,3.93
2022-12-26T07:27:26.433Z,2.63
2022-12-26T07:29:52.540Z,3.83
2022-12-26T07:32:18.713Z,3.63
2022-12-26T07:34:44.800Z,2.40
2022-12-26T07:37:10.933Z,3.03
2022-12-26T07:39:37.103Z,2.97
2022-12-26T07:42:04.187Z,3.77
2022-12-26T07:44:31.831Z,2.53
2022-12-26T07:46:58.961Z,15.17
2022-12-26T07:49:25.445Z,2.10
2022-12-26T07:51:51.609Z,3.80
2022-12-26T07:54:18.273Z,2.27
2022-12-26T07:56:44.710Z,2.00
2022-12-26T07:59:15.320Z,2.90
2022-12-26T08:01:42.399Z,2.43
2022-12-26T08:04:10.274Z,2.53
2022-12-26T08:06:37.688Z,2.23
2022-12-26T08:09:04.561Z,3.63
2022-12-26T08:11:33.303Z,1.93
2022-12-26T08:13:59.666Z,2.07
2022-12-26T08:16:27.152Z,2.03
2022-12-26T08:18:53.246Z,1.93
2022-12-26T08:21:19.393Z,1.73
2022-12-26T08:23:47.560Z,1.00
2022-12-26T08:26:19.937Z,1.10
2022-12-26T08:28:46.351Z,1.77
2022-12-26T08:31:13.181Z,0.90
2022-12-26T08:33:40.275Z,1.03
2022-12-26T08:36:09.145Z,0.90
2022-12-26T08:38:36.097Z,1.00
2022-12-26T08:41:02.288Z,0.90
2022-12-26T08:46:15.253Z,1.30
2022-12-26T08:48:41.726Z,1.00
2022-12-26T08:51:10.930Z,2.60
2022-12-26T08:53:37.569Z,0.80
2022-12-26T08:56:05.919Z,1.00
2022-12-26T08:58:32.566Z,0.90
2022-12-26T09:01:06.740Z,0.87
2022-12-26T09:03:32.994Z,5.10
2022-12-26T09:06:05.587Z,1.30
2022-12-26T09:08:34.168Z,1.23
2022-12-26T09:11:10.387Z,1.23
2022-12-26T09:13:38.055Z,1.00
2022-12-26T09:16:21.687Z,0.97
2022-12-26T09:18:48.465Z,1.10
2022-12-26T09:21:15.496Z,2.20
2022-12-26T09:23:42.139Z,2.17
2022-12-26T09:26:13.965Z,0.80
2022-12-26T09:28:40.808Z,1.20
2022-12-26T09:31:13.072Z,0.80
2022-12-26T09:33:39.311Z,0.90
2022-12-26T09:36:14.051Z,1.00
2022-12-26T09:38:41.147Z,0.90
2022-12-26T09:41:16.249Z,0.90
2022-12-26T09:43:53.279Z,2.00
2022-12-26T09:46:33.412Z,2.13
2022-12-26T09:49:21.088Z,4.93
2022-12-26T09:51:50.067Z,0.90
2022-12-26T09:54:27.192Z,0.90
2022-12-26T09:57:02.308Z,0.90
2022-12-26T09:59:32.090Z,0.90
2022-12-26T10:01:58.263Z,0.90
2022-12-26T10:04:29.580Z,0.80
2022-12-26T10:06:56.459Z,0.80
2022-12-26T10:09:25.236Z,1.47
2022-12-26T10:12:03.465Z,2.10
2022-12-26T10:14:57.520Z,0.90
2022-12-26T10:17:40.253Z,1.00
2022-12-26T10:20:15.652Z,0.83
2022-12-26T10:23:03.316Z,0.90
2022-12-26T10:25:48.452Z,1.73
2022-12-26T10:28:29.764Z,1.20
2022-12-26T10:30:58.248Z,1.00
2022-12-26T10:33:46.146Z,0.90
2022-12-26T10:36:17.563Z,2.60
2022-12-26T10:38:45.444Z,0.90
2022-12-26T10:41:23.823Z,1.10
2022-12-26T10:43:49.990Z,2.17
2022-12-26T10:46:22.062Z,1.33
2022-12-26T10:48:48.185Z,1.20
2022-12-26T10:51:14.727Z,1.10
2022-12-26T10:53:45.139Z,0.97
2022-12-26T10:56:16.387Z,1.77
2022-12-26T10:58:44.816Z,0.93
2022-12-26T11:01:29.503Z,0.83
2022-12-26T11:03:58.158Z,0.80
2022-12-26T11:06:51.115Z,1.97
2022-12-26T11:09:39.859Z,0.80
2022-12-26T11:12:21.295Z,1.07
2022-12-26T11:14:47.595Z,4.60
2022-12-26T11:17:26.720Z,1.10
2022-12-26T11:20:14.555Z,0.93
2022-12-26T11:22:44.605Z,0.90
2022-12-26T11:25:12.112Z,0.90
2022-12-26T11:27:41.209Z,1.00
2022-12-26T11:30:13.692Z,3.30
2022-12-26T11:32:49.955Z,1.63
2022-12-26T11:35:21.824Z,0.90
2022-12-26T11:37:52.166Z,0.90
2022-12-26T11:40:26.958Z,1.00
2022-12-26T11:42:56.521Z,2.67
2022-12-26T11:45:26.047Z,1.00
2022-12-26T11:47:55.793Z,0.93
2022-12-26T11:50:25.659Z,1.50
2022-12-26T11:52:57.740Z,1.00
2022-12-26T11:55:24.165Z,0.90
2022-12-26T11:58:20.707Z,1.33
2022-12-26T12:00:49.769Z,1.00
2022-12-26T12:03:49.690Z,1.00
2022-12-26T12:06:31.274Z,4.30
2022-12-26T12:09:17.665Z,0.90
2022-12-26T12:12:02.438Z,1.00
2022-12-26T12:14:41.732Z,1.10
2022-12-26T12:17:21.324Z,1.57
2022-12-26T12:20:14.810Z,1.00
2022-12-26T12:22:53.047Z,0.90
2022-12-26T12:25:22.214Z,2.17
2022-12-26T12:27:58.064Z,1.63
2022-12-26T12:30:28.430Z,1.97
2022-12-26T12:33:06.637Z,1.00
2022-12-26T12:35:47.763Z,4.13
2022-12-26T12:38:25.768Z,1.03
2022-12-26T12:41:10.368Z,1.30
2022-12-26T12:44:14.016Z,1.10
2022-12-26T12:46:58.923Z,1.00
2022-12-26T12:50:02.519Z,2.17
2022-12-26T12:53:09.994Z,1.03
2022-12-26T12:55:54.919Z,1.03
2022-12-26T12:58:41.852Z,1.10
2022-12-26T13:01:13.227Z,4.70
2022-12-26T13:03:54.772Z,1.77
2022-12-26T13:06:40.175Z,1.13
2022-12-26T13:09:22.450Z,1.77
2022-12-26T13:11:52.252Z,1.97
2022-12-26T13:14:34.771Z,3.10
2022-12-26T13:17:05.529Z,2.27
2022-12-26T13:19:41.099Z,1.47
2022-12-26T13:22:16.395Z,2.10
2022-12-26T13:24:50.992Z,1.30
2022-12-26T13:27:29.763Z,2.27
2022-12-26T13:29:55.915Z,2.80
2022-12-26T13:32:22.707Z,1.00
2022-12-26T13:34:51.278Z,1.20
2022-12-26T13:37:39.517Z,1.00
2022-12-26T13:40:11.941Z,1.30
2022-12-26T13:43:05.035Z,0.90
2022-12-26T13:45:37.203Z,1.10
2022-12-26T13:48:15.278Z,1.70
2022-12-26T13:50:56.784Z,1.20
2022-12-26T13:53:25.708Z,1.23
2022-12-26T13:55:54.151Z,1.50
2022-12-26T13:58:42.096Z,1.00
2022-12-26T14:01:26.756Z,1.93
2022-12-26T14:04:02.034Z,1.53
2022-12-26T14:06:28.197Z,4.80
2022-12-26T14:09:05.681Z,1.10
2022-12-26T14:11:59.525Z,1.17
2022-12-26T14:14:47.142Z,1.00
2022-12-26T14:17:54.791Z,1.03
2022-12-26T14:20:23.965Z,0.90
2022-12-26T14:23:15.267Z,1.47
2022-12-26T14:25:50.362Z,1.50
2022-12-26T14:29:09.622Z,2.47
2022-12-26T14:31:54.307Z,1.70
2022-12-26T14:34:38.617Z,1.67
2022-12-26T14:37:35.866Z,6.30
2022-12-26T14:40:33.991Z,1.77
2022-12-26T14:43:13.036Z,2.17
2022-12-26T14:45:46.485Z,2.57
2022-12-26T14:48:15.305Z,3.53
2022-12-26T14:50:44.447Z,2.00
2022-12-26T14:53:16.722Z,2.70
2022-12-26T14:55:48.584Z,1.40
2022-12-26T14:58:20.515Z,1.63
2022-12-26T15:00:47.259Z,1.60
2022-12-26T15:03:26.741Z,1.60
2022-12-26T15:06:17.306Z,2.23
2022-12-26T15:09:02.160Z,1.60
2022-12-26T15:11:46.707Z,1.90
2022-12-26T15:14:19.437Z,1.87
2022-12-26T15:16:54.477Z,1.60
2022-12-26T15:19:44.781Z,0.90
2022-12-26T15:23:05.488Z,1.03
2022-12-26T15:25:46.334Z,0.90
2022-12-26T15:28:30.439Z,0.90
2022-12-26T15:31:24.013Z,0.90
2022-12-26T15:34:33.694Z,1.43
2022-12-26T15:37:14.003Z,2.10
2022-12-26T15:39:52.157Z,0.80
2022-12-26T15:42:47.507Z,0.97
2022-12-26T15:45:27.965Z,1.00
2022-12-26T15:48:06.507Z,0.80
2022-12-26T15:50:57.723Z,0.90
2022-12-26T15:53:45.229Z,1.10
2022-12-26T15:56:25.198Z,0.90
2022-12-26T15:58:57.420Z,0.80
2022-12-26T16:01:44.682Z,1.83
2022-12-26T16:04:25.848Z,3.70
2022-12-26T16:07:08.381Z,0.87
2022-12-26T16:09:44.737Z,0.80
2022-12-26T16:12:23.410Z,0.90
2022-12-26T16:14:58.333Z,1.57
2022-12-26T16:17:24.650Z,1.50
2022-12-26T16:19:51.792Z,1.70
2022-12-26T16:22:48.730Z,4.70
2022-12-26T16:25:16.747Z,2.20
2022-12-26T16:27:44.419Z,5.30
2022-12-26T16:30:23.244Z,2.20
2022-12-26T16:32:49.502Z,2.53
2022-12-26T16:35:22.374Z,3.13
2022-12-26T16:37:49.754Z,3.97
2022-12-26T16:40:20.574Z,3.03
2022-12-26T16:43:18.156Z,4.03
2022-12-26T16:45:46.975Z,3.67
2022-12-26T16:48:15.987Z,3.60
2022-12-26T16:50:57.900Z,4.10
2022-12-26T16:53:36.206Z,4.00
2022-12-26T16:56:41.551Z,3.70
2022-12-26T16:59:19.894Z,3.60
2022-12-26T17:01:56.650Z,3.50
2022-12-26T17:04:31.673Z,3.40
2022-12-26T17:07:06.306Z,3.03
2022-12-26T17:09:40.906Z,2.67
2022-12-26T17:12:19.413Z,2.87
2022-12-26T17:14:46.779Z,4.10
2022-12-26T17:17:27.366Z,3.20
2022-12-26T17:19:55.588Z,3.87
2022-12-26T17:22:32.187Z,3.67
2022-12-26T17:25:16.723Z,4.17
2022-12-26T17:27:44.542Z,4.30
2022-12-26T17:30:31.432Z,4.80
2022-12-26T17:33:02.978Z,4.90
2022-12-26T17:35:40.851Z,6.43
2022-12-26T17:38:17.726Z,4.83
2022-12-26T17:40:45.059Z,4.57
2022-12-26T17:43:11.089Z,5.87
2022-12-26T17:45:46.217Z,6.60
2022-12-26T17:48:12.938Z,5.53
2022-12-26T17:50:41.976Z,5.73
2022-12-26T17:53:28.909Z,6.30
2022-12-26T17:55:56.873Z,6.40
2022-12-26T17:58:23.195Z,7.87
2022-12-26T18:00:49.671Z,7.70
2022-12-26T18:03:16.154Z,7.37
2022-12-26T18:05:42.884Z,7.53
2022-12-26T18:08:31.888Z,6.63
2022-12-26T18:10:59.147Z,6.03
2022-12-26T18:13:25.661Z,6.43
2022-12-26T18:15:53.413Z,7.67
2022-12-26T18:18:29.842Z,6.80
2022-12-26T18:20:56.027Z,5.00
2022-12-26T18:23:22.368Z,5.53
2022-12-26T18:25:54.171Z,4.93
2022-12-26T18:28:20.647Z,5.03
2022-12-26T18:30:46.805Z,8.03
2022-12-26T18:33:13.121Z,4.07
2022-12-26T18:35:40.847Z,5.07
2022-12-26T18:38:07.664Z,4.30
2022-12-26T18:40:38.334Z,5.40
2022-12-26T18:43:05.816Z,6.70
2022-12-26T18:45:32.555Z,4.80
2022-12-26T18:47:59.513Z,3.87
2022-12-26T18:50:27.039Z,4.10
2022-12-26T18:52:54.074Z,3.83
2022-12-26T18:55:21.994Z,7.00
2022-12-26T18:57:48.290Z,5.60
2022-12-26T19:00:16.456Z,6.53
2022-12-26T19:02:43.215Z,4.30
2022-12-26T19:05:21.091Z,3.70
2022-12-26T19:07:49.324Z,4.53
2022-12-26T19:10:21.072Z,5.00
2022-12-26T19:12:47.679Z,4.93
2022-12-26T19:15:14.504Z,7.83
2022-12-26T19:17:42.881Z,4.60
2022-12-26T19:20:43.678Z,6.77
2022-12-26T19:23:10.738Z,4.40
2022-12-26T19:25:36.823Z,4.70
2022-12-26T19:28:02.929Z,5.47
2022-12-26T19:30:32.364Z,9.33
2022-12-26T19:33:03.068Z,4.17
2022-12-26T19:35:29.136Z,6.47
2022-12-26T19:37:55.204Z,4.67
2022-12-26T19:40:24.950Z,4.40
2022-12-26T19:42:51.964Z,4.73
2022-12-26T19:45:18.167Z,6.47
2022-12-26T19:47:44.321Z,6.67
2022-12-26T19:50:11.212Z,6.37
2022-12-26T19:52:38.207Z,8.67
2022-12-26T19:55:06.022Z,5.00
2022-12-26T19:57:32.212Z,5.37
2022-12-26T19:59:58.311Z,4.40
2022-12-26T20:02:24.611Z,5.00
2022-12-26T20:04:50.969Z,4.80
2022-12-26T20:07:17.079Z,6.30
2022-12-26T20:09:43.528Z,3.33
2022-12-26T20:12:09.701Z,3.13
2022-12-26T20:14:36.777Z,3.20
2022-12-26T20:17:05.522Z,4.47
2022-12-26T20:19:32.774Z,4.20
2022-12-26T20:21:58.849Z,3.83
2022-12-26T20:24:25.155Z,4.67
2022-12-26T20:26:51.321Z,4.83
2022-12-26T20:29:17.473Z,7.93
2022-12-26T20:31:43.930Z,4.83
2022-12-26T20:34:10.882Z,5.37
2022-12-26T20:36:37.346Z,4.03
2022-12-26T20:39:06.232Z,6.30
2022-12-26T20:41:32.797Z,4.43
2022-12-26T20:43:58.969Z,4.73
2022-12-26T20:46:27.811Z,3.70
2022-12-26T20:48:54.465Z,4.13
2022-12-26T20:51:23.312Z,10.13
2022-12-26T20:53:50.614Z,3.57
2022-12-26T20:56:17.299Z,3.60
2022-12-26T20:58:43.500Z,2.33
2022-12-26T21:01:22.630Z,2.40
2022-12-26T21:03:51.825Z,3.37
2022-12-26T21:06:20.776Z,3.07
2022-12-26T21:08:48.776Z,2.60
2022-12-26T21:11:14.809Z,3.10
2022-12-26T21:13:42.310Z,5.50
2022-12-26T21:16:11.607Z,4.10
2022-12-26T21:18:38.242Z,3.17
2022-12-26T21:21:11.036Z,3.33
2022-12-26T21:23:37.447Z,3.20
2022-12-26T21:26:04.823Z,2.67
2022-12-26T21:28:31.579Z,2.63
2022-12-26T21:30:58.159Z,3.97
2022-12-26T21:33:24.470Z,2.53
2022-12-26T21:35:52.561Z,2.67
2022-12-26T21:38:22.615Z,2.37
2022-12-26T21:40:49.491Z,2.40
2022-12-26T21:43:16.056Z,3.73
2022-12-26T21:45:42.330Z,3.83
2022-12-26T21:48:08.924Z,1.90
2022-12-26T21:50:35.488Z,2.47
2022-12-26T21:53:01.842Z,5.03
2022-12-26T21:55:30.268Z,4.70
2022-12-26T21:57:58.443Z,4.23
2022-12-26T22:00:24.692Z,2.43
2022-12-26T22:03:09.194Z,6.05
2022-12-26T22:05:39.106Z,2.63
2022-12-26T22:08:10.577Z,2.53
2022-12-26T22:10:56.207Z,5.83
2022-12-26T22:13:23.615Z,3.10
2022-12-26T22:16:06.140Z,3.40
2022-12-26T22:18:47.584Z,1.73
2022-12-26T22:21:18.895Z,2.70
2022-12-26T22:23:45.825Z,1.77
2022-12-26T22:26:14.108Z,3.80
2022-12-26T22:28:40.853Z,2.90
2022-12-26T22:31:07.554Z,4.40
2022-12-26T22:33:33.726Z,6.70
2022-12-26T22:36:04.868Z,6.63
2022-12-26T22:38:31.100Z,3.20
2022-12-26T22:40:58.544Z,2.20
2022-12-26T22:43:25.255Z,2.53
2022-12-26T22:45:52.393Z,6.00
2022-12-26T22:48:19.202Z,3.73
2022-12-26T22:50:46.778Z,2.13
2022-12-26T22:53:13.247Z,3.90
2022-12-26T22:55:47.458Z,2.80
2022-12-26T22:58:14.189Z,2.53
2022-12-26T23:00:41.206Z,6.73
2022-12-26T23:03:07.882Z,4.87
2022-12-26T23:05:34.914Z,2.83
2022-12-26T23:08:01.417Z,1.80
2022-12-26T23:10:28.173Z,3.97
2022-12-26T23:12:54.933Z,4.17
2022-12-26T23:15:23.986Z,3.73
2022-12-26T23:18:27.637Z,2.73
2022-12-26T23:21:13.047Z,3.43
2022-12-26T23:23:39.355Z,4.77
2022-12-26T23:26:05.534Z,2.33
2022-12-26T23:28:50.208Z,3.63
2022-12-26T23:31:16.523Z,3.60
2022-12-26T23:33:42.630Z,5.57
2022-12-26T23:36:08.813Z,6.83
2022-12-26T23:38:34.865Z,3.50
2022-12-26T23:41:00.973Z,3.77
2022-12-26T23:43:27.342Z,1.17
2022-12-26T23:45:53.465Z,4.23
2022-12-26T23:48:19.566Z,2.60
2022-12-26T23:50:45.631Z,3.00
2022-12-26T23:53:11.662Z,3.10
2022-12-26T23:55:40.343Z,2.20
2022-12-26T23:58:06.995Z,1.50
